LFOVLFMU

Guest
Details From LFOV - Laval Entrammes
To LFMU - Beziers Vias
Flight Number -
Tags generated
Created
Modified
Stats Distance 346 nm / 641 km
Max Altitude 21,000 ft / 6,401 m
Waypoints 6
Social Downloads 0
Likes 0
Share VATSIM

Download

Looking for another format? Having issues loading an existing format? Contact us
Advertisement - Login to hide

Notes

Basic altitude profile: - Ascent Rate: 1500ft/min - Ascent Speed: 200kts - Cruise Altitude: 22000ft - Cruise Speed: 300kts - Descent Rate: 1500ft/min - Descent Speed: 200kts

Route

LFOV POI UT181 FOUCO UY156 PERIG UT186 GAI LFMU

ID Type Via Altitude Latitude Longitude Leg Dist Tot Dist Heading (true) Name
O LFOV APT - 0 ft / 0 m 48.03136˚ -0.74299˚ - 0 nm - Laval Entrammes
POI VOR - 21,000 ft / 6,401 m 46.58100˚ 0.29819˚ 96 nm 96 nm 154° / 154° POITIERS BIARD VOR
FOUCO FIX UT181 (AWY-HI) 21,000 ft / 6,401 m 45.75472˚ 0.48056˚ 50 nm 147 nm 171° / 171° -
PERIG FIX UY156 (AWY-HI) 21,000 ft / 6,401 m 45.11722˚ 0.96944˚ 43 nm 190 nm 152° / 152° -
GAI VOR UT186 (AWY-HI) 21,000 ft / 6,401 m 43.95406˚ 1.82417˚ 78 nm 269 nm 152° / 153° GAILLAC-Castelneau de Montmira
O LFMU APT - 0 ft / 0 m 43.32342˚ 3.35357˚ 76 nm 345 nm 119° / 120° Beziers Vias

Altitude Profile

Advertisement - Login to hide

Weather


0- 5 10 15 20 25 30 35+ Temperature / ° C

Clouds and Precipitation
Forecast for 2017-12-18 00:00 UTC. Updated 31 minutes ago

Ground ~20,000 ft ~40,000 ft Winds

LFOV

Details ICAO LFOV (LVA)
Name Laval Entrammes
Region France
Timezone Europe/Paris (UTC+1.0)
Stats Elevation 330 ft / 101 m (AMSL)
Location 48.031360° -0.742988°
Runways 1
Magnetic Variation 0.310° W

METAR

LFOV 172130Z AUTO 25009KT 9999 FEW033 BKN039 OVC056 08/06 Q1027

Decode

TAF

Not found

Departure Runways

ID Width Length Bearing (true) Bearing (mag) Surface Threshold Offset Overrun Length
15 98 ft / 30 m 5,004 ft / 1,525 m 142.43° 142.74° Asphalt 0 ft / 0 m 197 ft / 60 m
33 98 ft / 30 m 5,004 ft / 1,525 m 322.44° 322.75° Asphalt 985 ft / 300 m 197 ft / 60 m

LFMU

Details ICAO LFMU (BZR)
Name Beziers Vias
Region France
Timezone Europe/Paris (UTC+1.0)
Stats Elevation 54 ft / 16 m (AMSL)
Location 43.323422° 3.353573°
Runways 1
Magnetic Variation 1.101° E

METAR

LFMU 172130Z AUTO 31003KT 260V360 CAVOK 03/M02 Q1030

Decode

TAF

TAF LFMU 171930Z 1719/1815 CNL

Decode

Destination Runways

ID Width Length Bearing (true) Bearing (mag) Surface Threshold Offset Overrun Length
10 115 ft / 35 m 5,955 ft / 1,815 m 94.20° 93.10° Asphalt 459 ft / 140 m 0 ft / 0 m
28 115 ft / 35 m 5,955 ft / 1,815 m 274.22° 273.12° Asphalt 0 ft / 0 m 0 ft / 0 m

Approach Navaids

Runway Type Ident Frequency Range Bearing (true) Bearing (mag) Slope Elevation
10 Localiser ZR 109.35 MHz 18 nm / 33 km 94.52° 93.42° - 50 ft / 15 m (AMSL)
10 Glidescope ZR 109.35 MHz 10 nm / 19 km 94.21° 93.11° 3.00° 92 ft / 28 m (AMSL)
10 DME ZR 109.35 MHz 18 nm / 33 km - - - 92 ft / 28 m (AMSL)

Popular Alternatives